Pagrindinis puslapis
METAR-TAF:

METAR-TAF

Oro uostai :

Kota Kinabalu, Malaizija

platuma: 05-56N, ilguma: 116-03E, Aukštis: 3 m

Dabartinis oras

Ataskaita buvo paskelbta 43 minutes, ne 19:30 UTC
Vėjas 4 kt iš Rytų/Pietryčių
Temperatūra 25°C
Drėgmė 89%
Slėgis 1009 hPa
Matomumas: 6000 m
Mažai debesys ne aukštis 1500 ft
Išsisklaidę debesys ne aukštis 14000 ft
Su prošvaistėmis ne aukštis 27000 ft

METAR: WBKK 201930Z 11004KT 6000 FEW015 SCT140 BKN270 25/23 Q1009 NOSIG

Laikas: 04:13 (20:13 UTC)

Prognozė

Ataskaita buvo paskelbta 3 valandos ir 13 minutes, ne 17:00 UTC
Prognozė galioja nuo 20 metu 18 UTC su 21 metu 18 UTC
Vėjas 5 kt iš Rytų/Pietryčių
Matomumas: 6000 m
Mažai debesys ne aukštis 1500 ft
Tapsmas
nuo 21 metu 00 UTC su 21 metu 02 UTC
Vėjas 5 kt iš Vakarų

TAF: WBKK 201700Z 2018/2118 11005KT 6000 FEW015 BECMG 2100/2102 28005KT

Orai ataskaitas ir orų prognozės (METAR, TAF).

turimą stotys yra geltonos ir raudonos taškus žemėlapyje.

Perkelti pele per norėdami pamatyti stoties vardą.

Tada spustelėkite, norėdami matyti oro stebėjimo ir prognozės.

Norėdami pakeisti žemėlapį: spustelėkite ant žalios mygtukų su juodo kryžiaus žemyn,; žalią mygtuką su brūkšneliu, jei norite nutolinti; arba žalių rodyklių gretimoms žemėlapius.


METAR-TAF: